createdAt,value
2023-01-09T00:01:24.082Z,73.28
2023-01-09T00:03:50.692Z,73.26
2023-01-09T00:06:17.159Z,73.77
2023-01-09T00:08:43.636Z,73.87
2023-01-09T00:11:10.708Z,73.34
2023-01-09T00:13:38.412Z,73.27
2023-01-09T00:16:07.480Z,73.20
2023-01-09T00:18:35.759Z,73.84
2023-01-09T00:21:05.011Z,74.12
2023-01-09T00:23:31.885Z,73.93
2023-01-09T00:26:17.919Z,73.72
2023-01-09T00:28:46.340Z,74.31
2023-01-09T00:31:13.805Z,74.60
2023-01-09T00:33:50.413Z,73.82
2023-01-09T00:36:16.819Z,74.42
2023-01-09T00:38:43.401Z,74.28
2023-01-09T00:41:18.300Z,73.38
2023-01-09T00:43:51.695Z,72.64
2023-01-09T00:46:24.827Z,72.92
2023-01-09T00:48:51.584Z,74.13
2023-01-09T00:51:20.515Z,73.79
2023-01-09T00:53:50.044Z,72.81
2023-01-09T00:56:20.409Z,72.20
2023-01-09T00:58:48.356Z,73.02
2023-01-09T01:01:15.275Z,73.31
2023-01-09T01:03:41.907Z,73.27
2023-01-09T01:06:27.206Z,73.68
2023-01-09T01:08:55.736Z,73.41
2023-01-09T01:11:23.254Z,73.59
2023-01-09T01:13:49.771Z,73.55
2023-01-09T01:16:18.136Z,73.34
2023-01-09T01:18:44.921Z,73.29
2023-01-09T01:21:14.155Z,73.43
2023-01-09T01:23:41.065Z,73.57
2023-01-09T01:26:11.758Z,73.50
2023-01-09T01:28:39.379Z,73.73
2023-01-09T01:31:06.294Z,74.14
2023-01-09T01:33:34.221Z,74.03
2023-01-09T01:36:08.403Z,73.54
2023-01-09T01:38:36.421Z,73.69
2023-01-09T01:41:04.352Z,73.73
2023-01-09T01:43:55.116Z,73.85
2023-01-09T01:46:22.105Z,73.91
2023-01-09T01:48:57.076Z,74.02
2023-01-09T01:51:29.582Z,73.83
2023-01-09T01:54:03.801Z,73.48
2023-01-09T01:56:40.588Z,73.17
2023-01-09T01:59:19.037Z,73.18
2023-01-09T02:01:52.103Z,73.18
2023-01-09T02:04:19.318Z,73.23
2023-01-09T02:06:50.891Z,73.19
2023-01-09T02:09:20.358Z,73.16
2023-01-09T02:11:49.703Z,72.90
2023-01-09T02:14:16.787Z,72.87
2023-01-09T02:17:14.919Z,72.75
2023-01-09T02:20:38.447Z,72.98
2023-01-09T02:23:44.341Z,72.84
2023-01-09T02:26:41.595Z,73.04
2023-01-09T02:29:52.612Z,72.82
2023-01-09T02:32:42.897Z,73.22
2023-01-09T02:35:47.283Z,72.39
2023-01-09T02:38:40.704Z,73.24
2023-01-09T02:41:13.316Z,72.94
2023-01-09T02:43:41.591Z,72.73
2023-01-09T02:46:23.032Z,72.41
2023-01-09T02:48:53.536Z,72.76
2023-01-09T02:51:38.016Z,72.81
2023-01-09T02:54:31.556Z,72.84
2023-01-09T02:57:34.699Z,72.69
2023-01-09T03:00:11.444Z,72.79
2023-01-09T03:02:52.508Z,72.65
2023-01-09T03:05:47.280Z,72.53
2023-01-09T03:08:20.617Z,72.60
2023-01-09T03:11:02.486Z,72.65
2023-01-09T03:13:39.463Z,72.59
2023-01-09T03:16:12.259Z,72.60
2023-01-09T03:18:39.739Z,72.76
2023-01-09T03:21:09.440Z,72.79
2023-01-09T03:23:51.203Z,72.27
2023-01-09T03:26:19.054Z,72.52
2023-01-09T03:28:47.394Z,72.81
2023-01-09T03:31:14.981Z,72.56
2023-01-09T03:33:42.520Z,72.39
2023-01-09T03:36:11.919Z,72.48
2023-01-09T03:38:38.630Z,72.36
2023-01-09T03:41:05.675Z,72.30
2023-01-09T03:43:32.431Z,71.60
2023-01-09T03:45:59.457Z,71.47
2023-01-09T03:48:26.088Z,72.05
2023-01-09T03:50:54.483Z,72.04
2023-01-09T03:53:24.899Z,71.63
2023-01-09T03:55:55.138Z,71.79
2023-01-09T03:58:23.681Z,72.01
2023-01-09T04:00:50.784Z,71.81
2023-01-09T04:03:20.119Z,72.06
2023-01-09T04:05:49.738Z,72.02
2023-01-09T04:08:17.647Z,71.47
2023-01-09T04:10:46.240Z,71.96
2023-01-09T04:13:13.223Z,72.00
2023-01-09T04:15:39.844Z,71.47
2023-01-09T04:18:06.880Z,71.84
2023-01-09T04:20:33.739Z,71.72
2023-01-09T04:23:00.417Z,71.93
2023-01-09T04:25:27.484Z,71.54
2023-01-09T04:27:54.052Z,71.72
2023-01-09T04:30:20.564Z,72.37
2023-01-09T04:32:47.099Z,72.60
2023-01-09T04:35:13.694Z,72.39
2023-01-09T04:37:40.218Z,72.60
2023-01-09T04:40:10.620Z,72.24
2023-01-09T04:42:38.444Z,72.68
2023-01-09T04:45:07.042Z,72.76
2023-01-09T04:47:33.649Z,72.87
2023-01-09T04:50:00.991Z,72.81
2023-01-09T04:52:28.455Z,72.88
2023-01-09T04:54:55.004Z,72.90
2023-01-09T04:57:21.507Z,73.11
2023-01-09T04:59:47.966Z,73.58
2023-01-09T05:02:14.690Z,73.63
2023-01-09T05:04:41.296Z,73.46
2023-01-09T05:07:07.951Z,73.81
2023-01-09T05:09:34.607Z,73.49
2023-01-09T05:12:01.909Z,73.11
2023-01-09T05:14:28.579Z,73.48
2023-01-09T05:16:55.022Z,73.30
2023-01-09T05:19:21.514Z,73.21
2023-01-09T05:21:48.055Z,73.20
2023-01-09T05:24:14.843Z,72.93
2023-01-09T05:26:41.355Z,73.00
2023-01-09T05:29:07.862Z,73.10
2023-01-09T05:31:34.367Z,73.06
2023-01-09T05:34:00.894Z,73.32
2023-01-09T05:36:28.129Z,73.03
2023-01-09T05:38:54.655Z,73.08
2023-01-09T05:41:23.547Z,73.27
2023-01-09T05:43:50.619Z,73.44
2023-01-09T05:46:17.107Z,73.48
2023-01-09T05:48:44.739Z,73.31
2023-01-09T05:51:12.170Z,72.99
2023-01-09T05:53:38.682Z,73.23
2023-01-09T05:56:05.533Z,73.02
2023-01-09T05:58:32.018Z,73.20
2023-01-09T06:00:58.997Z,73.20
2023-01-09T06:03:25.485Z,72.69
2023-01-09T06:05:51.969Z,72.39
2023-01-09T06:08:18.443Z,72.25
2023-01-09T06:10:46.964Z,72.13
2023-01-09T06:13:13.784Z,71.91
2023-01-09T06:15:40.293Z,71.91
2023-01-09T06:18:06.858Z,71.78
2023-01-09T06:20:34.083Z,71.69
2023-01-09T06:23:00.637Z,71.61
2023-01-09T06:25:27.165Z,72.02
2023-01-09T06:27:53.737Z,72.18
2023-01-09T06:30:21.004Z,72.16
2023-01-09T06:32:49.554Z,72.24
2023-01-09T06:35:20.738Z,72.70
2023-01-09T06:37:48.588Z,72.58
2023-01-09T06:40:16.286Z,72.54
2023-01-09T06:42:46.504Z,72.19
2023-01-09T06:45:14.316Z,72.35
2023-01-09T06:47:41.318Z,72.27
2023-01-09T06:50:09.393Z,72.50
2023-01-09T06:52:37.309Z,72.59
2023-01-09T06:55:04.245Z,72.32
2023-01-09T06:57:30.779Z,72.73
2023-01-09T06:59:57.848Z,72.78
2023-01-09T07:02:24.711Z,72.50
2023-01-09T07:04:51.318Z,72.38
2023-01-09T07:07:19.384Z,73.27
2023-01-09T07:09:45.933Z,72.88
2023-01-09T07:12:12.907Z,72.69
2023-01-09T07:14:39.438Z,72.77
2023-01-09T07:17:06.365Z,72.50
2023-01-09T07:19:33.216Z,72.16
2023-01-09T07:21:59.653Z,71.74
2023-01-09T07:24:26.251Z,72.01
2023-01-09T07:26:52.687Z,71.96
2023-01-09T07:29:19.119Z,72.05
2023-01-09T07:31:45.646Z,71.91
2023-01-09T07:34:12.230Z,72.16
2023-01-09T07:36:38.778Z,71.96
2023-01-09T07:39:05.268Z,72.58
2023-01-09T07:41:31.756Z,72.86
2023-01-09T07:43:58.292Z,72.82
2023-01-09T07:46:24.861Z,72.79
2023-01-09T07:48:51.354Z,72.83
2023-01-09T07:51:17.847Z,72.12
2023-01-09T07:53:44.325Z,72.93
2023-01-09T07:56:10.931Z,73.19
2023-01-09T07:58:38.362Z,72.91
2023-01-09T08:01:05.197Z,72.57
2023-01-09T08:03:33.433Z,72.97
2023-01-09T08:06:00.723Z,72.66
2023-01-09T08:08:27.751Z,72.33
2023-01-09T08:10:54.349Z,72.56
2023-01-09T08:13:20.936Z,72.02
2023-01-09T08:15:47.542Z,72.40
2023-01-09T08:18:14.177Z,72.00
2023-01-09T08:20:40.611Z,72.22
2023-01-09T08:23:07.138Z,72.22
2023-01-09T08:25:33.659Z,72.48
2023-01-09T08:28:00.181Z,72.39
2023-01-09T08:30:26.697Z,71.72
2023-01-09T08:32:54.397Z,72.45
2023-01-09T08:35:21.132Z,72.07
2023-01-09T08:37:48.925Z,71.94
2023-01-09T08:40:17.790Z,72.22
2023-01-09T08:43:03.305Z,71.95
2023-01-09T08:45:50.621Z,71.70
2023-01-09T08:48:17.440Z,71.98
2023-01-09T08:50:44.500Z,72.04
2023-01-09T08:53:11.637Z,71.84
2023-01-09T08:55:38.639Z,71.59
2023-01-09T08:58:05.121Z,71.00
2023-01-09T09:00:31.576Z,71.09
2023-01-09T09:03:01.022Z,71.02
2023-01-09T09:05:31.625Z,70.81
2023-01-09T09:07:59.876Z,70.61
2023-01-09T09:10:29.410Z,70.54
2023-01-09T09:12:59.007Z,70.50
2023-01-09T09:15:27.715Z,70.54
2023-01-09T09:18:03.584Z,71.28
2023-01-09T09:20:34.082Z,71.11
2023-01-09T09:23:00.885Z,70.83
2023-01-09T09:25:28.524Z,71.01
2023-01-09T09:27:57.923Z,70.69
2023-01-09T09:30:25.145Z,70.35
2023-01-09T09:32:51.756Z,70.94
2023-01-09T09:35:19.130Z,70.57
2023-01-09T09:38:02.006Z,70.07
2023-01-09T09:40:38.527Z,70.48
2023-01-09T09:44:01.775Z,70.59
2023-01-09T09:47:18.250Z,70.30
2023-01-09T09:50:05.790Z,70.73
2023-01-09T09:53:18.912Z,70.08
2023-01-09T09:55:49.536Z,70.33
2023-01-09T09:58:37.524Z,70.17
2023-01-09T10:01:07.112Z,70.56
2023-01-09T10:03:44.995Z,70.80
2023-01-09T10:06:34.410Z,70.09
2023-01-09T10:09:36.008Z,70.07
2023-01-09T10:12:39.164Z,70.44
2023-01-09T10:15:21.123Z,70.15
2023-01-09T10:18:32.781Z,70.27
2023-01-09T10:21:47.983Z,69.78
2023-01-09T10:24:58.053Z,69.93
2023-01-09T10:27:55.406Z,69.87
2023-01-09T10:30:42.905Z,70.14
2023-01-09T10:33:34.380Z,69.07
2023-01-09T10:36:40.311Z,69.12
2023-01-09T10:39:24.678Z,69.44
2023-01-09T10:42:04.492Z,68.99
2023-01-09T10:44:38.761Z,68.93
2023-01-09T10:47:37.957Z,68.64
2023-01-09T10:50:21.133Z,69.10
2023-01-09T10:52:51.270Z,69.02
2023-01-09T10:55:44.610Z,68.84
2023-01-09T10:58:20.253Z,68.60
2023-01-09T11:00:49.892Z,68.61
2023-01-09T11:03:22.855Z,68.80
2023-01-09T11:05:57.198Z,68.63
2023-01-09T11:08:44.343Z,68.51
2023-01-09T11:11:12.764Z,68.82
2023-01-09T11:13:43.541Z,69.07
2023-01-09T11:16:23.979Z,68.12
2023-01-09T11:18:57.591Z,68.67
2023-01-09T11:21:40.578Z,68.14
2023-01-09T11:24:19.003Z,67.97
2023-01-09T11:26:47.753Z,67.99
2023-01-09T11:29:18.914Z,68.02
2023-01-09T11:31:58.317Z,67.96
2023-01-09T11:34:31.177Z,68.09
2023-01-09T11:37:10.616Z,68.04
2023-01-09T11:39:45.321Z,68.15
2023-01-09T11:42:41.971Z,68.07
2023-01-09T11:45:20.500Z,68.14
2023-01-09T11:47:47.677Z,67.87
2023-01-09T11:50:26.956Z,67.66
2023-01-09T11:53:17.424Z,68.17
2023-01-09T11:55:46.361Z,69.88
2023-01-09T11:58:21.000Z,69.55
2023-01-09T12:01:30.302Z,67.63
2023-01-09T12:04:23.454Z,69.05
2023-01-09T12:07:20.918Z,69.53
2023-01-09T12:10:08.078Z,69.41
2023-01-09T12:13:02.045Z,71.34
2023-01-09T12:15:38.451Z,69.82
2023-01-09T12:18:37.561Z,69.67
2023-01-09T12:21:48.319Z,70.07
2023-01-09T12:24:39.971Z,70.40
2023-01-09T12:27:30.493Z,69.48
2023-01-09T12:30:26.078Z,69.75
2023-01-09T12:33:25.479Z,68.60
2023-01-09T12:36:42.765Z,68.57
2023-01-09T12:39:39.557Z,69.11
2023-01-09T12:42:35.108Z,68.09
2023-01-09T12:45:29.873Z,68.16
2023-01-09T12:48:42.947Z,69.18
2023-01-09T12:51:23.531Z,69.14
2023-01-09T12:54:34.205Z,70.09
2023-01-09T12:57:13.998Z,70.25
2023-01-09T12:59:52.924Z,70.56
2023-01-09T13:02:35.377Z,70.55
2023-01-09T13:05:20.392Z,70.83
2023-01-09T13:08:04.965Z,70.69
2023-01-09T13:10:50.537Z,70.27
2023-01-09T13:13:26.730Z,70.19
2023-01-09T13:15:58.312Z,69.59
2023-01-09T13:18:41.872Z,69.30
2023-01-09T13:21:11.743Z,69.35
2023-01-09T13:23:59.339Z,68.74
2023-01-09T13:26:34.930Z,68.55
2023-01-09T13:29:22.289Z,68.66
2023-01-09T13:32:27.840Z,69.02
2023-01-09T13:34:57.591Z,70.05
2023-01-09T13:37:32.836Z,69.42
2023-01-09T13:40:29.306Z,69.74
2023-01-09T13:42:58.250Z,69.19
2023-01-09T13:45:29.179Z,69.12
2023-01-09T13:48:11.131Z,69.43
2023-01-09T13:50:39.611Z,69.85
2023-01-09T13:53:18.527Z,67.46
2023-01-09T13:55:56.977Z,69.29
2023-01-09T13:58:51.497Z,69.10
2023-01-09T14:01:39.686Z,69.50
2023-01-09T14:04:14.031Z,67.91
2023-01-09T14:06:41.700Z,69.02
2023-01-09T14:09:23.009Z,68.93
2023-01-09T14:12:04.836Z,68.75
2023-01-09T14:14:34.627Z,68.51
2023-01-09T14:17:03.310Z,68.46
2023-01-09T14:19:40.089Z,68.59
2023-01-09T14:22:07.934Z,68.92
2023-01-09T14:24:43.950Z,68.63
2023-01-09T14:28:06.731Z,69.00
2023-01-09T14:30:59.863Z,69.52
2023-01-09T14:33:32.847Z,68.39
2023-01-09T14:36:21.717Z,68.43
2023-01-09T14:39:00.067Z,68.72
2023-01-09T14:42:05.590Z,68.85
2023-01-09T14:44:50.655Z,69.33
2023-01-09T14:47:53.347Z,69.87
2023-01-09T14:51:02.591Z,70.10
2023-01-09T14:53:34.524Z,70.21
2023-01-09T14:56:06.565Z,70.02
2023-01-09T14:58:36.093Z,70.09
2023-01-09T15:01:22.799Z,70.17
2023-01-09T15:03:58.817Z,69.81
2023-01-09T15:06:30.864Z,70.03
2023-01-09T15:09:04.264Z,69.81
2023-01-09T15:11:33.673Z,70.01
2023-01-09T15:14:04.347Z,69.99
2023-01-09T15:16:32.896Z,69.93
2023-01-09T15:19:06.148Z,69.21
2023-01-09T15:21:32.913Z,69.79
2023-01-09T15:24:34.499Z,69.66
2023-01-09T15:27:15.545Z,69.81
2023-01-09T15:29:42.044Z,70.08
2023-01-09T15:32:18.773Z,69.90
2023-01-09T15:34:48.222Z,69.72
2023-01-09T15:37:39.230Z,69.82
2023-01-09T15:40:17.300Z,69.53
2023-01-09T15:42:58.322Z,69.04
2023-01-09T15:45:37.082Z,69.35
2023-01-09T15:48:22.584Z,69.14
2023-01-09T15:50:55.702Z,69.21
2023-01-09T15:53:26.576Z,69.54
2023-01-09T15:56:16.674Z,69.19
2023-01-09T15:58:49.265Z,68.91
2023-01-09T16:01:24.844Z,69.41
2023-01-09T16:03:52.620Z,69.70
2023-01-09T16:06:28.842Z,69.59
2023-01-09T16:08:59.524Z,70.40
2023-01-09T16:11:30.976Z,69.71
2023-01-09T16:14:13.489Z,69.83
2023-01-09T16:16:41.625Z,69.88
2023-01-09T16:19:50.214Z,69.94
2023-01-09T16:22:29.569Z,69.94
2023-01-09T16:25:32.443Z,70.38
2023-01-09T16:28:28.316Z,70.29
2023-01-09T16:31:05.076Z,70.06
2023-01-09T16:33:32.453Z,69.64
2023-01-09T16:35:59.185Z,69.66
2023-01-09T16:38:26.336Z,69.77
2023-01-09T16:41:17.231Z,69.71
2023-01-09T16:43:43.999Z,69.84
2023-01-09T16:46:11.553Z,70.13
2023-01-09T16:48:40.174Z,70.04
2023-01-09T16:51:13.594Z,69.72
2023-01-09T16:53:40.123Z,69.78
2023-01-09T16:56:17.539Z,69.77
2023-01-09T16:58:44.808Z,69.99
2023-01-09T17:01:13.446Z,70.10
2023-01-09T17:03:44.561Z,69.35
2023-01-09T17:06:22.991Z,69.60
2023-01-09T17:08:51.365Z,70.38
2023-01-09T17:11:23.652Z,69.59
2023-01-09T17:13:50.671Z,69.56
2023-01-09T17:16:18.132Z,69.22
2023-01-09T17:18:45.456Z,69.32
2023-01-09T17:21:25.042Z,68.57
2023-01-09T17:24:10.330Z,69.01
2023-01-09T17:26:58.064Z,69.69
2023-01-09T17:29:25.054Z,69.55
2023-01-09T17:31:51.856Z,69.15
2023-01-09T17:34:18.536Z,69.23
2023-01-09T17:36:45.830Z,69.79
2023-01-09T17:39:17.664Z,69.39
2023-01-09T17:41:44.525Z,68.97
2023-01-09T17:44:12.406Z,68.83
2023-01-09T17:46:42.861Z,69.35
2023-01-09T17:49:21.478Z,68.25
2023-01-09T17:51:48.720Z,68.60
2023-01-09T17:54:15.687Z,68.55
2023-01-09T17:56:48.880Z,68.46
2023-01-09T17:59:16.194Z,68.28
2023-01-09T18:01:44.587Z,69.49
2023-01-09T18:04:11.714Z,68.66
2023-01-09T18:06:38.657Z,68.82
2023-01-09T18:09:06.752Z,69.13
2023-01-09T18:11:36.166Z,68.53
2023-01-09T18:14:02.651Z,68.52
2023-01-09T18:16:29.332Z,68.46
2023-01-09T18:18:58.738Z,68.20
2023-01-09T18:21:27.983Z,68.73
2023-01-09T18:23:56.088Z,69.18
2023-01-09T18:26:22.923Z,69.58
2023-01-09T18:28:56.990Z,69.05
2023-01-09T18:31:25.940Z,69.28
2023-01-09T18:33:56.392Z,69.57
2023-01-09T18:36:30.579Z,68.79
2023-01-09T18:39:00.868Z,68.74
2023-01-09T18:41:29.561Z,68.30
2023-01-09T18:44:01.541Z,68.88
2023-01-09T18:46:31.858Z,68.39
2023-01-09T18:49:03.204Z,68.21
2023-01-09T18:51:32.212Z,68.41
2023-01-09T18:53:58.772Z,68.66
2023-01-09T18:56:26.506Z,68.56
2023-01-09T18:58:57.968Z,68.84
2023-01-09T19:01:26.436Z,68.50
2023-01-09T19:03:53.206Z,69.38
2023-01-09T19:06:19.861Z,69.09
2023-01-09T19:08:46.417Z,69.03
2023-01-09T19:11:13.511Z,69.30
2023-01-09T19:13:40.017Z,69.54
2023-01-09T19:16:09.833Z,69.76
2023-01-09T19:18:41.534Z,70.08
2023-01-09T19:21:21.281Z,70.10
2023-01-09T19:23:49.406Z,69.87
2023-01-09T19:26:23.736Z,69.92
2023-01-09T19:28:54.870Z,70.05
2023-01-09T19:31:24.230Z,69.79
2023-01-09T19:33:52.371Z,69.82
2023-01-09T19:36:19.895Z,69.19
2023-01-09T19:38:46.718Z,69.60
2023-01-09T19:41:19.036Z,69.60
2023-01-09T19:43:47.650Z,69.62
2023-01-09T19:46:21.801Z,69.67
2023-01-09T19:48:49.373Z,68.96
2023-01-09T19:51:19.352Z,69.21
2023-01-09T19:56:29.905Z,69.11
2023-01-09T19:59:00.115Z,69.71
2023-01-09T20:01:39.353Z,69.80
2023-01-09T20:04:13.302Z,69.78
2023-01-09T20:06:46.361Z,69.92
2023-01-09T20:09:17.510Z,69.76
2023-01-09T20:11:44.758Z,69.43
2023-01-09T20:14:17.608Z,69.11
2023-01-09T20:16:47.337Z,69.67
2023-01-09T20:19:15.956Z,70.09
2023-01-09T20:21:43.147Z,69.75
2023-01-09T20:24:16.511Z,69.91
2023-01-09T20:26:43.638Z,70.06
2023-01-09T20:29:10.146Z,69.81
2023-01-09T20:31:37.179Z,70.36
2023-01-09T20:34:03.835Z,70.61
2023-01-09T20:36:32.096Z,70.38
2023-01-09T20:39:01.855Z,70.34
2023-01-09T20:41:30.640Z,69.73
2023-01-09T20:44:11.169Z,69.63
2023-01-09T20:46:42.294Z,69.52
2023-01-09T20:49:13.203Z,70.01
2023-01-09T20:51:47.788Z,69.81
2023-01-09T20:54:15.843Z,70.79
2023-01-09T20:56:42.787Z,70.60
2023-01-09T20:59:17.090Z,70.78
2023-01-09T21:01:43.874Z,70.49
2023-01-09T21:04:11.516Z,70.37
2023-01-09T21:06:38.499Z,70.28
2023-01-09T21:09:06.571Z,70.20
2023-01-09T21:11:33.545Z,71.20
2023-01-09T21:14:00.235Z,71.66
2023-01-09T21:16:26.870Z,71.19
2023-01-09T21:18:55.128Z,70.70
2023-01-09T21:21:27.133Z,70.82
2023-01-09T21:23:57.293Z,71.41
2023-01-09T21:26:28.264Z,70.26
2023-01-09T21:28:57.525Z,70.18
2023-01-09T21:31:35.183Z,69.62
2023-01-09T21:34:06.738Z,70.08
2023-01-09T21:36:35.172Z,70.21
2023-01-09T21:39:02.151Z,70.55
2023-01-09T21:41:47.228Z,70.63
2023-01-09T21:44:32.607Z,70.82
2023-01-09T21:47:02.547Z,71.25
2023-01-09T21:49:34.623Z,71.24
2023-01-09T21:52:03.919Z,71.59
2023-01-09T21:54:31.254Z,71.33
2023-01-09T21:56:58.886Z,71.39
2023-01-09T21:59:25.678Z,70.88
2023-01-09T22:01:52.597Z,70.97
2023-01-09T22:04:23.989Z,71.48
2023-01-09T22:06:52.975Z,71.67
2023-01-09T22:09:19.520Z,72.01
2023-01-09T22:11:46.427Z,71.33
2023-01-09T22:14:16.830Z,71.05
2023-01-09T22:16:45.696Z,71.25
2023-01-09T22:19:14.307Z,71.19
2023-01-09T22:21:41.048Z,71.37
2023-01-09T22:24:07.973Z,71.60
2023-01-09T22:26:35.163Z,72.13
2023-01-09T22:29:01.829Z,71.14
2023-01-09T22:31:29.202Z,70.79
2023-01-09T22:33:58.669Z,70.75
2023-01-09T22:36:28.219Z,71.73
2023-01-09T22:38:59.680Z,71.87
2023-01-09T22:41:29.784Z,72.51
2023-01-09T22:43:56.686Z,72.46
2023-01-09T22:46:23.361Z,72.46
2023-01-09T22:48:50.063Z,71.71
2023-01-09T22:51:19.558Z,71.83
2023-01-09T22:53:46.477Z,72.05
2023-01-09T22:56:16.921Z,71.53
2023-01-09T22:58:44.246Z,71.65
2023-01-09T23:01:12.428Z,71.65
2023-01-09T23:03:40.288Z,71.76
2023-01-09T23:06:12.600Z,71.75
2023-01-09T23:08:39.982Z,71.69
2023-01-09T23:11:11.546Z,71.19
2023-01-09T23:13:39.340Z,71.68
2023-01-09T23:16:07.133Z,71.42
2023-01-09T23:18:34.367Z,71.80
2023-01-09T23:21:04.925Z,71.89
2023-01-09T23:23:33.207Z,72.12
2023-01-09T23:26:04.776Z,71.88
2023-01-09T23:28:31.334Z,71.63
2023-01-09T23:30:57.866Z,71.42
2023-01-09T23:33:25.077Z,71.42
2023-01-09T23:35:51.596Z,72.13
2023-01-09T23:38:18.070Z,71.58
2023-01-09T23:40:44.523Z,71.89
2023-01-09T23:43:13.098Z,72.38
2023-01-09T23:45:45.610Z,71.87
2023-01-09T23:48:15.172Z,72.31
2023-01-09T23:50:50.804Z,71.55
2023-01-09T23:53:22.020Z,71.83
2023-01-09T23:55:49.533Z,71.40
2023-01-09T23:58:16.042Z,71.99
